Falcone–Borsellino Airport

LICJ · 西西里岛, 意大利

罗盘
风向 的 风向 的 风向 到 风向 220° Falcone–Borsellino Airport 7/25
风: 4 kt, 2 beaufort

4 kt

2 kt
改变
0 ft 1.000 2.000 3.000 4.000 5.000
CAVOK
METAR LICJ 172150Z 22004KT 190V250 CAVOK 23/20 Q1016

METAR Falcone–Borsellino Airport - LICJ/PMO

Falcone–Borsellino Airport是,意大利中的大型机场。 该机场位于纬度38,17735和经度13,09703。 该机场有2条跑道: 7/25 和 2/20. 本场的ICAO机场代码为LICJ。 该机场的IATA代码为PMO。 机场在Roma FIR中。

该航空气象观测是针对Falcone–Borsellino Airport在2024年6月17日 23:50, 当地时间进行的。

机场观察

风向为220°,速度为4 kt。 风向在190°和250°之间变化。

天气为CAVOK。这意味着在5.000 ft或MSA(最低安全高度)以下(以较高者为准)以下没有云。这也意味着没有观测到积雨云或高耸的积云,可见度为10 km 或者更多或更高。此外,不会有雾,降雨或其他重要天气。

温度和风寒是23 °C。 露点为20 °C,相对湿度为83%。 海平面上的气压为1016 hPa (QNH)。

白天

今天,太阳从05:44升起,在20:33降落。 这适用于Falcone–Borsellino Airport,世界夏令时可能有所不同。 当地时间与世界标准时间之间的时差为+2 小时。 夏令时目前正在进行中。

公司介绍

我们没有关于这个机场的公司信息。

体会

到Vliegles.nl去找飞行课程,跳伞和其他飞行体验。 浏览页面,了解Falcone–Borsellino Airport附近所有可用的活动。 你也可以使用搜索功能来寻找你所在地附近的特定飞行课程、跳伞或其他飞行体验。

跑道

Id 标题 侧风 逆风 侧风 %
7/25 065°-245° 2 kt 4 kt 42 %
2/20 022°-202° 1 kt 4 kt 31 %

逆风成分最大的方向会被突出显示,并用于横风计算。 这并不一定意味着这个方向在使用。

温度 & 天气

温度 23 °C
露点 20 °C
相对湿度 83%
Kp-index 1 (0-9)

白天

日出
05:44 (5:23)
中午
13:08
日落
20:33

小工具

你想在你的网站上有一个关于Falcone–Borsellino Airport的当前航空天气(METAR)的小部件吗?

显示HTML代码
报告变更